sensor_id;sensor_type;location;lat;lon;timestamp;P1;durP1;ratioP1;P2;durP2;ratioP2
49029;SDS011;43337;52.070;4.508;2022-07-29T00:00:47;3.60;;;0.73;;
49029;SDS011;43337;52.070;4.508;2022-07-29T00:03:13;7.53;;;2.10;;
49029;SDS011;43337;52.070;4.508;2022-07-29T00:05:42;2.00;;;0.90;;
49029;SDS011;43337;52.070;4.508;2022-07-29T00:08:08;2.92;;;1.02;;
49029;SDS011;43337;52.070;4.508;2022-07-29T00:10:34;4.07;;;1.23;;
49029;SDS011;43337;52.070;4.508;2022-07-29T00:13:00;3.78;;;1.00;;
49029;SDS011;43337;52.070;4.508;2022-07-29T00:15:26;3.53;;;0.80;;
49029;SDS011;43337;52.070;4.508;2022-07-29T00:17:57;3.72;;;0.90;;
49029;SDS011;43337;52.070;4.508;2022-07-29T00:20:22;3.40;;;0.82;;
49029;SDS011;43337;52.070;4.508;2022-07-29T00:22:47;2.30;;;0.80;;
49029;SDS011;43337;52.070;4.508;2022-07-29T00:25:13;3.17;;;0.95;;
49029;SDS011;43337;52.070;4.508;2022-07-29T00:27:38;5.72;;;1.17;;
49029;SDS011;43337;52.070;4.508;2022-07-29T00:30:04;3.85;;;0.90;;
49029;SDS011;43337;52.070;4.508;2022-07-29T00:32:30;5.55;;;1.20;;
49029;SDS011;43337;52.070;4.508;2022-07-29T00:34:56;3.83;;;1.00;;
49029;SDS011;43337;52.070;4.508;2022-07-29T00:37:40;3.40;;;1.00;;
49029;SDS011;43337;52.070;4.508;2022-07-29T00:40:06;3.67;;;1.27;;
49029;SDS011;43337;52.070;4.508;2022-07-29T00:42:41;2.17;;;0.98;;
49029;SDS011;43337;52.070;4.508;2022-07-29T00:45:07;3.45;;;1.08;;
49029;SDS011;43337;52.070;4.508;2022-07-29T00:47:33;5.82;;;1.77;;
49029;SDS011;43337;52.070;4.508;2022-07-29T00:49:58;2.53;;;0.93;;
49029;SDS011;43337;52.070;4.508;2022-07-29T00:52:24;4.72;;;1.10;;
49029;SDS011;43337;52.070;4.508;2022-07-29T00:54:49;3.80;;;1.20;;
49029;SDS011;43337;52.070;4.508;2022-07-29T00:57:15;2.78;;;0.95;;
49029;SDS011;43337;52.070;4.508;2022-07-29T00:59:40;3.33;;;1.00;;
49029;SDS011;43337;52.070;4.508;2022-07-29T01:02:06;4.57;;;1.30;;
49029;SDS011;43337;52.070;4.508;2022-07-29T01:04:31;3.88;;;1.13;;
49029;SDS011;43337;52.070;4.508;2022-07-29T01:06:57;5.32;;;1.50;;
49029;SDS011;43337;52.070;4.508;2022-07-29T01:09:23;4.68;;;1.40;;
49029;SDS011;43337;52.070;4.508;2022-07-29T01:11:49;3.53;;;1.08;;
49029;SDS011;43337;52.070;4.508;2022-07-29T01:14:15;5.45;;;1.23;;
49029;SDS011;43337;52.070;4.508;2022-07-29T01:16:46;3.00;;;1.10;;
49029;SDS011;43337;52.070;4.508;2022-07-29T01:22:02;3.28;;;1.20;;
49029;SDS011;43337;52.070;4.508;2022-07-29T01:30:09;2.30;;;1.10;;
49029;SDS011;43337;52.070;4.508;2022-07-29T01:32:36;2.88;;;1.10;;
49029;SDS011;43337;52.070;4.508;2022-07-29T01:35:13;4.47;;;1.20;;
49029;SDS011;43337;52.070;4.508;2022-07-29T01:38:17;3.97;;;1.20;;
49029;SDS011;43337;52.070;4.508;2022-07-29T01:40:54;3.63;;;1.23;;
49029;SDS011;43337;52.070;4.508;2022-07-29T01:43:42;2.90;;;1.27;;
49029;SDS011;43337;52.070;4.508;2022-07-29T01:46:14;3.30;;;1.48;;
49029;SDS011;43337;52.070;4.508;2022-07-29T01:48:54;3.67;;;1.33;;
49029;SDS011;43337;52.070;4.508;2022-07-29T01:51:35;4.13;;;1.10;;
49029;SDS011;43337;52.070;4.508;2022-07-29T01:56:37;3.28;;;1.20;;
49029;SDS011;43337;52.070;4.508;2022-07-29T01:59:04;3.55;;;1.30;;
49029;SDS011;43337;52.070;4.508;2022-07-29T02:01:33;5.05;;;1.33;;
49029;SDS011;43337;52.070;4.508;2022-07-29T02:04:01;5.43;;;1.35;;
49029;SDS011;43337;52.070;4.508;2022-07-29T02:06:29;3.10;;;1.15;;
49029;SDS011;43337;52.070;4.508;2022-07-29T02:08:56;4.88;;;1.20;;
49029;SDS011;43337;52.070;4.508;2022-07-29T02:11:24;3.88;;;1.23;;
49029;SDS011;43337;52.070;4.508;2022-07-29T02:13:49;3.53;;;1.10;;
49029;SDS011;43337;52.070;4.508;2022-07-29T02:16:20;3.28;;;1.20;;
49029;SDS011;43337;52.070;4.508;2022-07-29T02:18:46;3.95;;;1.17;;
49029;SDS011;43337;52.070;4.508;2022-07-29T02:21:14;4.75;;;1.70;;
49029;SDS011;43337;52.070;4.508;2022-07-29T02:23:45;4.57;;;1.40;;
49029;SDS011;43337;52.070;4.508;2022-07-29T02:26:11;3.25;;;1.13;;
49029;SDS011;43337;52.070;4.508;2022-07-29T02:28:38;4.88;;;1.23;;
49029;SDS011;43337;52.070;4.508;2022-07-29T02:31:05;3.65;;;1.20;;
49029;SDS011;43337;52.070;4.508;2022-07-29T02:33:32;5.68;;;1.15;;
49029;SDS011;43337;52.070;4.508;2022-07-29T02:35:58;3.13;;;1.33;;
49029;SDS011;43337;52.070;4.508;2022-07-29T02:38:27;3.20;;;1.20;;
49029;SDS011;43337;52.070;4.508;2022-07-29T02:41:13;5.38;;;1.20;;
49029;SDS011;43337;52.070;4.508;2022-07-29T02:43:43;5.05;;;1.30;;
49029;SDS011;43337;52.070;4.508;2022-07-29T02:46:11;4.35;;;1.25;;
49029;SDS011;43337;52.070;4.508;2022-07-29T02:48:43;4.05;;;1.13;;
49029;SDS011;43337;52.070;4.508;2022-07-29T02:51:25;6.40;;;1.48;;
49029;SDS011;43337;52.070;4.508;2022-07-29T02:53:57;5.45;;;1.20;;
49029;SDS011;43337;52.070;4.508;2022-07-29T02:56:27;3.28;;;1.10;;
49029;SDS011;43337;52.070;4.508;2022-07-29T02:59:00;6.00;;;1.40;;
49029;SDS011;43337;52.070;4.508;2022-07-29T03:01:30;3.72;;;1.50;;
49029;SDS011;43337;52.070;4.508;2022-07-29T03:03:57;8.20;;;1.40;;
49029;SDS011;43337;52.070;4.508;2022-07-29T03:06:28;2.70;;;1.00;;
49029;SDS011;43337;52.070;4.508;2022-07-29T03:08:54;3.95;;;1.50;;
49029;SDS011;43337;52.070;4.508;2022-07-29T03:11:21;6.32;;;2.17;;
49029;SDS011;43337;52.070;4.508;2022-07-29T03:13:48;3.78;;;1.27;;
49029;SDS011;43337;52.070;4.508;2022-07-29T03:16:13;5.28;;;1.42;;
49029;SDS011;43337;52.070;4.508;2022-07-29T03:18:40;3.45;;;1.38;;
49029;SDS011;43337;52.070;4.508;2022-07-29T03:21:06;4.90;;;1.55;;
49029;SDS011;43337;52.070;4.508;2022-07-29T03:23:33;6.85;;;1.50;;
49029;SDS011;43337;52.070;4.508;2022-07-29T03:25:58;3.95;;;1.48;;
49029;SDS011;43337;52.070;4.508;2022-07-29T03:28:24;6.25;;;1.70;;
49029;SDS011;43337;52.070;4.508;2022-07-29T03:30:49;4.28;;;1.50;;
49029;SDS011;43337;52.070;4.508;2022-07-29T03:33:15;5.60;;;1.65;;
49029;SDS011;43337;52.070;4.508;2022-07-29T03:35:40;5.35;;;1.52;;
49029;SDS011;43337;52.070;4.508;2022-07-29T03:38:06;3.70;;;1.50;;
49029;SDS011;43337;52.070;4.508;2022-07-29T03:40:38;4.22;;;1.73;;
49029;SDS011;43337;52.070;4.508;2022-07-29T03:43:09;5.03;;;1.90;;
49029;SDS011;43337;52.070;4.508;2022-07-29T03:45:38;4.57;;;1.50;;
49029;SDS011;43337;52.070;4.508;2022-07-29T03:48:08;3.65;;;1.50;;
49029;SDS011;43337;52.070;4.508;2022-07-29T03:50:37;5.47;;;1.70;;
49029;SDS011;43337;52.070;4.508;2022-07-29T03:53:03;5.78;;;1.70;;
49029;SDS011;43337;52.070;4.508;2022-07-29T03:55:30;6.28;;;1.58;;
49029;SDS011;43337;52.070;4.508;2022-07-29T03:58:01;4.72;;;2.00;;
49029;SDS011;43337;52.070;4.508;2022-07-29T04:00:27;6.38;;;1.65;;
49029;SDS011;43337;52.070;4.508;2022-07-29T04:02:53;5.40;;;2.10;;
49029;SDS011;43337;52.070;4.508;2022-07-29T04:05:19;3.70;;;1.90;;
49029;SDS011;43337;52.070;4.508;2022-07-29T04:07:44;4.93;;;1.83;;
49029;SDS011;43337;52.070;4.508;2022-07-29T04:10:11;4.10;;;2.10;;
49029;SDS011;43337;52.070;4.508;2022-07-29T04:12:36;4.43;;;1.75;;
49029;SDS011;43337;52.070;4.508;2022-07-29T04:15:03;4.22;;;1.88;;
49029;SDS011;43337;52.070;4.508;2022-07-29T04:17:29;4.00;;;1.55;;
49029;SDS011;43337;52.070;4.508;2022-07-29T04:19:54;7.13;;;2.22;;
49029;SDS011;43337;52.070;4.508;2022-07-29T04:22:19;5.53;;;1.92;;
49029;SDS011;43337;52.070;4.508;2022-07-29T04:24:45;4.70;;;1.83;;
49029;SDS011;43337;52.070;4.508;2022-07-29T04:27:10;3.78;;;1.80;;
49029;SDS011;43337;52.070;4.508;2022-07-29T04:29:35;7.28;;;1.70;;
49029;SDS011;43337;52.070;4.508;2022-07-29T04:32:01;5.43;;;1.75;;
49029;SDS011;43337;52.070;4.508;2022-07-29T04:34:26;4.00;;;1.80;;
49029;SDS011;43337;52.070;4.508;2022-07-29T04:36:51;4.43;;;1.70;;
49029;SDS011;43337;52.070;4.508;2022-07-29T04:39:17;5.18;;;1.80;;
49029;SDS011;43337;52.070;4.508;2022-07-29T04:41:43;4.90;;;2.00;;
49029;SDS011;43337;52.070;4.508;2022-07-29T04:44:09;3.92;;;1.80;;
49029;SDS011;43337;52.070;4.508;2022-07-29T04:46:34;7.95;;;2.33;;
49029;SDS011;43337;52.070;4.508;2022-07-29T04:49:01;4.85;;;1.60;;
49029;SDS011;43337;52.070;4.508;2022-07-29T04:51:27;4.07;;;1.70;;
49029;SDS011;43337;52.070;4.508;2022-07-29T04:53:53;10.30;;;2.28;;
49029;SDS011;43337;52.070;4.508;2022-07-29T04:56:18;5.97;;;1.77;;
49029;SDS011;43337;52.070;4.508;2022-07-29T04:58:43;5.28;;;1.60;;
49029;SDS011;43337;52.070;4.508;2022-07-29T05:01:09;4.68;;;1.70;;
49029;SDS011;43337;52.070;4.508;2022-07-29T05:03:34;5.00;;;1.83;;
49029;SDS011;43337;52.070;4.508;2022-07-29T05:06:00;4.55;;;1.92;;
49029;SDS011;43337;52.070;4.508;2022-07-29T05:08:25;3.95;;;1.80;;
49029;SDS011;43337;52.070;4.508;2022-07-29T05:10:50;4.65;;;1.48;;
49029;SDS011;43337;52.070;4.508;2022-07-29T05:13:16;4.65;;;1.70;;
49029;SDS011;43337;52.070;4.508;2022-07-29T05:15:41;3.72;;;1.60;;
49029;SDS011;43337;52.070;4.508;2022-07-29T05:18:06;8.20;;;1.88;;
49029;SDS011;43337;52.070;4.508;2022-07-29T05:20:32;4.43;;;2.00;;
49029;SDS011;43337;52.070;4.508;2022-07-29T05:22:59;6.00;;;1.55;;
49029;SDS011;43337;52.070;4.508;2022-07-29T05:25:26;5.35;;;1.60;;
49029;SDS011;43337;52.070;4.508;2022-07-29T05:27:53;4.25;;;1.77;;
49029;SDS011;43337;52.070;4.508;2022-07-29T05:30:19;5.50;;;2.05;;
49029;SDS011;43337;52.070;4.508;2022-07-29T05:32:45;4.47;;;1.80;;
49029;SDS011;43337;52.070;4.508;2022-07-29T05:35:11;3.92;;;1.77;;
49029;SDS011;43337;52.070;4.508;2022-07-29T05:37:37;6.00;;;2.08;;
49029;SDS011;43337;52.070;4.508;2022-07-29T05:40:03;6.13;;;1.75;;
49029;SDS011;43337;52.070;4.508;2022-07-29T05:42:29;5.65;;;2.20;;
49029;SDS011;43337;52.070;4.508;2022-07-29T05:44:54;5.60;;;1.83;;
49029;SDS011;43337;52.070;4.508;2022-07-29T05:47:20;5.50;;;2.30;;
49029;SDS011;43337;52.070;4.508;2022-07-29T05:49:45;5.68;;;1.85;;
49029;SDS011;43337;52.070;4.508;2022-07-29T05:52:11;5.70;;;1.80;;
49029;SDS011;43337;52.070;4.508;2022-07-29T05:54:36;4.22;;;1.80;;
49029;SDS011;43337;52.070;4.508;2022-07-29T05:57:02;4.05;;;1.67;;
49029;SDS011;43337;52.070;4.508;2022-07-29T05:59:27;5.22;;;1.52;;
49029;SDS011;43337;52.070;4.508;2022-07-29T06:01:53;6.55;;;1.77;;
49029;SDS011;43337;52.070;4.508;2022-07-29T06:04:19;5.75;;;1.60;;
49029;SDS011;43337;52.070;4.508;2022-07-29T06:06:44;3.45;;;1.33;;
49029;SDS011;43337;52.070;4.508;2022-07-29T06:09:10;6.53;;;1.63;;
49029;SDS011;43337;52.070;4.508;2022-07-29T06:11:35;6.20;;;1.45;;
49029;SDS011;43337;52.070;4.508;2022-07-29T06:14:01;3.92;;;1.67;;
49029;SDS011;43337;52.070;4.508;2022-07-29T06:16:28;3.35;;;1.58;;
49029;SDS011;43337;52.070;4.508;2022-07-29T06:18:53;5.55;;;1.60;;
49029;SDS011;43337;52.070;4.508;2022-07-29T06:21:19;6.00;;;1.65;;
49029;SDS011;43337;52.070;4.508;2022-07-29T06:23:44;3.70;;;1.70;;
49029;SDS011;43337;52.070;4.508;2022-07-29T06:26:10;3.72;;;1.52;;
49029;SDS011;43337;52.070;4.508;2022-07-29T06:28:35;3.28;;;1.50;;
49029;SDS011;43337;52.070;4.508;2022-07-29T06:31:01;5.47;;;1.73;;
49029;SDS011;43337;52.070;4.508;2022-07-29T06:33:26;5.07;;;1.50;;
49029;SDS011;43337;52.070;4.508;2022-07-29T06:35:52;5.90;;;1.50;;
49029;SDS011;43337;52.070;4.508;2022-07-29T06:38:17;5.88;;;1.42;;
49029;SDS011;43337;52.070;4.508;2022-07-29T06:40:43;4.88;;;1.40;;
49029;SDS011;43337;52.070;4.508;2022-07-29T06:43:25;4.50;;;1.48;;
49029;SDS011;43337;52.070;4.508;2022-07-29T06:45:56;5.60;;;1.73;;
49029;SDS011;43337;52.070;4.508;2022-07-29T06:48:26;3.55;;;1.70;;
49029;SDS011;43337;52.070;4.508;2022-07-29T06:50:53;4.72;;;1.80;;
49029;SDS011;43337;52.070;4.508;2022-07-29T06:53:18;3.80;;;1.50;;
49029;SDS011;43337;52.070;4.508;2022-07-29T06:55:44;7.78;;;1.80;;
49029;SDS011;43337;52.070;4.508;2022-07-29T06:58:09;4.50;;;1.80;;
49029;SDS011;43337;52.070;4.508;2022-07-29T07:00:35;4.88;;;1.35;;
49029;SDS011;43337;52.070;4.508;2022-07-29T07:03:01;4.85;;;1.80;;
49029;SDS011;43337;52.070;4.508;2022-07-29T07:05:26;3.92;;;1.50;;
49029;SDS011;43337;52.070;4.508;2022-07-29T07:07:51;3.53;;;1.52;;
49029;SDS011;43337;52.070;4.508;2022-07-29T07:10:17;4.93;;;1.80;;
49029;SDS011;43337;52.070;4.508;2022-07-29T07:12:42;5.55;;;1.90;;
49029;SDS011;43337;52.070;4.508;2022-07-29T07:15:08;4.07;;;1.65;;
49029;SDS011;43337;52.070;4.508;2022-07-29T07:17:33;3.78;;;1.50;;
49029;SDS011;43337;52.070;4.508;2022-07-29T07:19:59;4.95;;;1.60;;
49029;SDS011;43337;52.070;4.508;2022-07-29T07:22:24;4.95;;;1.50;;
49029;SDS011;43337;52.070;4.508;2022-07-29T07:24:50;4.93;;;1.90;;
49029;SDS011;43337;52.070;4.508;2022-07-29T07:27:15;4.68;;;1.55;;
49029;SDS011;43337;52.070;4.508;2022-07-29T07:29:40;4.75;;;1.58;;
49029;SDS011;43337;52.070;4.508;2022-07-29T07:32:06;4.50;;;1.70;;
49029;SDS011;43337;52.070;4.508;2022-07-29T07:34:32;4.22;;;1.73;;
49029;SDS011;43337;52.070;4.508;2022-07-29T07:36:57;4.93;;;1.63;;
49029;SDS011;43337;52.070;4.508;2022-07-29T07:39:23;4.60;;;1.80;;
49029;SDS011;43337;52.070;4.508;2022-07-29T07:41:48;4.60;;;1.80;;
49029;SDS011;43337;52.070;4.508;2022-07-29T07:44:14;6.22;;;1.77;;
49029;SDS011;43337;52.070;4.508;2022-07-29T07:46:39;5.72;;;2.10;;
49029;SDS011;43337;52.070;4.508;2022-07-29T07:49:05;4.50;;;1.73;;
49029;SDS011;43337;52.070;4.508;2022-07-29T07:51:30;4.72;;;2.10;;
49029;SDS011;43337;52.070;4.508;2022-07-29T07:53:55;5.00;;;1.73;;
49029;SDS011;43337;52.070;4.508;2022-07-29T07:56:21;8.43;;;2.30;;
49029;SDS011;43337;52.070;4.508;2022-07-29T07:58:46;4.80;;;2.08;;
49029;SDS011;43337;52.070;4.508;2022-07-29T08:01:11;6.05;;;2.60;;
49029;SDS011;43337;52.070;4.508;2022-07-29T08:03:37;4.47;;;1.90;;
49029;SDS011;43337;52.070;4.508;2022-07-29T08:06:03;6.20;;;2.03;;
49029;SDS011;43337;52.070;4.508;2022-07-29T08:08:29;6.35;;;2.15;;
49029;SDS011;43337;52.070;4.508;2022-07-29T08:10:54;8.75;;;2.90;;
49029;SDS011;43337;52.070;4.508;2022-07-29T08:13:25;6.05;;;2.00;;
49029;SDS011;43337;52.070;4.508;2022-07-29T08:15:53;5.03;;;2.30;;
49029;SDS011;43337;52.070;4.508;2022-07-29T08:18:27;3.30;;;2.08;;
49029;SDS011;43337;52.070;4.508;2022-07-29T08:20:53;5.50;;;1.95;;
49029;SDS011;43337;52.070;4.508;2022-07-29T08:23:19;5.10;;;2.05;;
49029;SDS011;43337;52.070;4.508;2022-07-29T08:25:44;10.75;;;2.42;;
49029;SDS011;43337;52.070;4.508;2022-07-29T08:28:10;5.32;;;2.15;;
49029;SDS011;43337;52.070;4.508;2022-07-29T08:30:35;6.97;;;2.00;;
49029;SDS011;43337;52.070;4.508;2022-07-29T08:33:00;6.40;;;2.28;;
49029;SDS011;43337;52.070;4.508;2022-07-29T08:35:26;6.28;;;2.03;;
49029;SDS011;43337;52.070;4.508;2022-07-29T08:37:52;9.18;;;2.60;;
49029;SDS011;43337;52.070;4.508;2022-07-29T08:40:21;7.40;;;2.10;;
49029;SDS011;43337;52.070;4.508;2022-07-29T08:42:48;6.15;;;2.15;;
49029;SDS011;43337;52.070;4.508;2022-07-29T08:45:14;4.78;;;2.10;;
49029;SDS011;43337;52.070;4.508;2022-07-29T08:47:40;4.35;;;1.80;;
49029;SDS011;43337;52.070;4.508;2022-07-29T08:50:08;6.20;;;2.40;;
49029;SDS011;43337;52.070;4.508;2022-07-29T08:52:38;4.68;;;1.70;;
49029;SDS011;43337;52.070;4.508;2022-07-29T08:55:05;4.25;;;2.33;;
49029;SDS011;43337;52.070;4.508;2022-07-29T08:57:32;4.18;;;2.05;;
49029;SDS011;43337;52.070;4.508;2022-07-29T08:59:59;5.57;;;1.98;;
49029;SDS011;43337;52.070;4.508;2022-07-29T09:02:27;5.63;;;2.30;;
49029;SDS011;43337;52.070;4.508;2022-07-29T09:04:56;7.75;;;2.30;;
49029;SDS011;43337;52.070;4.508;2022-07-29T09:07:25;7.50;;;2.50;;
49029;SDS011;43337;52.070;4.508;2022-07-29T09:09:50;3.70;;;2.30;;
49029;SDS011;43337;52.070;4.508;2022-07-29T09:12:16;6.53;;;2.25;;
49029;SDS011;43337;52.070;4.508;2022-07-29T09:14:41;7.20;;;2.42;;
49029;SDS011;43337;52.070;4.508;2022-07-29T09:17:07;6.97;;;2.45;;
49029;SDS011;43337;52.070;4.508;2022-07-29T09:19:34;5.88;;;2.25;;
49029;SDS011;43337;52.070;4.508;2022-07-29T09:22:01;7.22;;;2.78;;
49029;SDS011;43337;52.070;4.508;2022-07-29T09:26:59;6.75;;;2.90;;
49029;SDS011;43337;52.070;4.508;2022-07-29T09:29:24;5.78;;;2.70;;
49029;SDS011;43337;52.070;4.508;2022-07-29T09:31:51;9.35;;;2.67;;
49029;SDS011;43337;52.070;4.508;2022-07-29T09:34:22;12.48;;;3.28;;
49029;SDS011;43337;52.070;4.508;2022-07-29T09:36:53;5.43;;;2.58;;
49029;SDS011;43337;52.070;4.508;2022-07-29T09:39:52;8.82;;;3.00;;
49029;SDS011;43337;52.070;4.508;2022-07-29T09:42:11;7.07;;;2.53;;
49029;SDS011;43337;52.070;4.508;2022-07-29T09:44:47;5.10;;;2.25;;
49029;SDS011;43337;52.070;4.508;2022-07-29T09:47:14;9.80;;;3.83;;
49029;SDS011;43337;52.070;4.508;2022-07-29T09:49:51;8.73;;;3.65;;
49029;SDS011;43337;52.070;4.508;2022-07-29T09:52:17;6.20;;;2.88;;
49029;SDS011;43337;52.070;4.508;2022-07-29T09:54:43;6.07;;;2.60;;
49029;SDS011;43337;52.070;4.508;2022-07-29T09:57:21;9.35;;;3.10;;
49029;SDS011;43337;52.070;4.508;2022-07-29T10:02:33;5.13;;;2.50;;
49029;SDS011;43337;52.070;4.508;2022-07-29T10:05:02;7.32;;;3.70;;
49029;SDS011;43337;52.070;4.508;2022-07-29T10:10:25;5.88;;;2.70;;
49029;SDS011;43337;52.070;4.508;2022-07-29T10:12:55;5.75;;;2.72;;
49029;SDS011;43337;52.070;4.508;2022-07-29T10:17:55;4.70;;;2.42;;
49029;SDS011;43337;52.070;4.508;2022-07-29T10:20:21;5.80;;;1.98;;
49029;SDS011;43337;52.070;4.508;2022-07-29T10:22:48;6.45;;;2.17;;
49029;SDS011;43337;52.070;4.508;2022-07-29T10:25:15;6.60;;;2.63;;
49029;SDS011;43337;52.070;4.508;2022-07-29T10:27:42;6.70;;;2.15;;
49029;SDS011;43337;52.070;4.508;2022-07-29T10:30:09;4.55;;;2.00;;
49029;SDS011;43337;52.070;4.508;2022-07-29T10:32:39;6.47;;;2.17;;
49029;SDS011;43337;52.070;4.508;2022-07-29T10:44:21;7.45;;;2.13;;
49029;SDS011;43337;52.070;4.508;2022-07-29T10:46:49;5.93;;;1.92;;
49029;SDS011;43337;52.070;4.508;2022-07-29T10:49:19;4.38;;;1.77;;
49029;SDS011;43337;52.070;4.508;2022-07-29T10:59:41;6.10;;;2.38;;
49029;SDS011;43337;52.070;4.508;2022-07-29T11:05:02;6.35;;;2.42;;
49029;SDS011;43337;52.070;4.508;2022-07-29T11:07:36;6.20;;;2.10;;
49029;SDS011;43337;52.070;4.508;2022-07-29T11:15:06;8.75;;;2.60;;
49029;SDS011;43337;52.070;4.508;2022-07-29T11:23:20;5.55;;;1.77;;
49029;SDS011;43337;52.070;4.508;2022-07-29T11:28:39;4.25;;;1.63;;
49029;SDS011;43337;52.070;4.508;2022-07-29T11:31:16;4.18;;;1.55;;
49029;SDS011;43337;52.070;4.508;2022-07-29T11:33:44;4.50;;;1.48;;
49029;SDS011;43337;52.070;4.508;2022-07-29T11:36:10;6.50;;;1.73;;
49029;SDS011;43337;52.070;4.508;2022-07-29T11:38:37;5.63;;;1.70;;
49029;SDS011;43337;52.070;4.508;2022-07-29T11:43:49;3.25;;;1.10;;
49029;SDS011;43337;52.070;4.508;2022-07-29T11:49:21;6.78;;;2.15;;
49029;SDS011;43337;52.070;4.508;2022-07-29T11:51:54;4.93;;;1.40;;
49029;SDS011;43337;52.070;4.508;2022-07-29T11:54:25;8.52;;;2.30;;
49029;SDS011;43337;52.070;4.508;2022-07-29T11:56:55;6.63;;;1.42;;
49029;SDS011;43337;52.070;4.508;2022-07-29T11:59:22;3.25;;;1.33;;
49029;SDS011;43337;52.070;4.508;2022-07-29T12:01:58;5.78;;;1.40;;
49029;SDS011;43337;52.070;4.508;2022-07-29T12:04:24;4.65;;;1.38;;
49029;SDS011;43337;52.070;4.508;2022-07-29T12:06:51;4.95;;;1.30;;
49029;SDS011;43337;52.070;4.508;2022-07-29T12:09:18;6.15;;;1.60;;
49029;SDS011;43337;52.070;4.508;2022-07-29T12:11:45;6.20;;;1.83;;
49029;SDS011;43337;52.070;4.508;2022-07-29T12:14:32;5.10;;;1.70;;
49029;SDS011;43337;52.070;4.508;2022-07-29T12:16:57;4.22;;;1.58;;
49029;SDS011;43337;52.070;4.508;2022-07-29T12:19:24;4.10;;;1.10;;
49029;SDS011;43337;52.070;4.508;2022-07-29T12:21:53;3.30;;;1.30;;
49029;SDS011;43337;52.070;4.508;2022-07-29T12:24:20;4.90;;;1.50;;
49029;SDS011;43337;52.070;4.508;2022-07-29T12:29:19;7.10;;;1.58;;
49029;SDS011;43337;52.070;4.508;2022-07-29T12:31:44;6.75;;;1.88;;
49029;SDS011;43337;52.070;4.508;2022-07-29T12:34:15;3.90;;;1.58;;
49029;SDS011;43337;52.070;4.508;2022-07-29T12:36:41;6.32;;;1.70;;
49029;SDS011;43337;52.070;4.508;2022-07-29T12:39:07;4.20;;;1.40;;
49029;SDS011;43337;52.070;4.508;2022-07-29T12:41:34;5.30;;;1.27;;
49029;SDS011;43337;52.070;4.508;2022-07-29T12:44:00;5.22;;;1.30;;
49029;SDS011;43337;52.070;4.508;2022-07-29T12:46:25;5.32;;;1.63;;
49029;SDS011;43337;52.070;4.508;2022-07-29T12:48:52;4.30;;;1.40;;
49029;SDS011;43337;52.070;4.508;2022-07-29T12:51:29;5.75;;;1.92;;
49029;SDS011;43337;52.070;4.508;2022-07-29T12:54:29;5.22;;;1.65;;
49029;SDS011;43337;52.070;4.508;2022-07-29T12:56:57;5.78;;;1.83;;
49029;SDS011;43337;52.070;4.508;2022-07-29T12:59:23;5.75;;;1.73;;
49029;SDS011;43337;52.070;4.508;2022-07-29T13:01:50;5.05;;;1.45;;
49029;SDS011;43337;52.070;4.508;2022-07-29T13:04:29;6.57;;;1.40;;
49029;SDS011;43337;52.070;4.508;2022-07-29T13:12:06;3.75;;;1.15;;
49029;SDS011;43337;52.070;4.508;2022-07-29T13:14:35;5.30;;;1.40;;
49029;SDS011;43337;52.070;4.508;2022-07-29T13:22:10;9.90;;;1.65;;
49029;SDS011;43337;52.070;4.508;2022-07-29T13:24:46;5.30;;;1.50;;
49029;SDS011;43337;52.070;4.508;2022-07-29T13:27:13;4.20;;;1.50;;
49029;SDS011;43337;52.070;4.508;2022-07-29T13:29:39;3.80;;;1.10;;
49029;SDS011;43337;52.070;4.508;2022-07-29T13:32:05;3.95;;;1.15;;
49029;SDS011;43337;52.070;4.508;2022-07-29T13:34:30;5.78;;;1.70;;
49029;SDS011;43337;52.070;4.508;2022-07-29T13:36:56;5.57;;;1.30;;
49029;SDS011;43337;52.070;4.508;2022-07-29T13:39:21;3.65;;;1.15;;
49029;SDS011;43337;52.070;4.508;2022-07-29T13:41:47;6.13;;;1.70;;
49029;SDS011;43337;52.070;4.508;2022-07-29T13:44:12;7.57;;;1.30;;
49029;SDS011;43337;52.070;4.508;2022-07-29T13:46:37;5.25;;;1.55;;
49029;SDS011;43337;52.070;4.508;2022-07-29T13:49:03;3.20;;;0.98;;
49029;SDS011;43337;52.070;4.508;2022-07-29T13:51:28;4.53;;;1.90;;
49029;SDS011;43337;52.070;4.508;2022-07-29T13:53:53;4.43;;;1.23;;
49029;SDS011;43337;52.070;4.508;2022-07-29T13:56:19;4.95;;;1.00;;
49029;SDS011;43337;52.070;4.508;2022-07-29T13:58:44;4.40;;;1.20;;
49029;SDS011;43337;52.070;4.508;2022-07-29T14:01:09;5.35;;;1.20;;
49029;SDS011;43337;52.070;4.508;2022-07-29T14:03:35;3.67;;;1.23;;
49029;SDS011;43337;52.070;4.508;2022-07-29T14:06:03;5.20;;;1.50;;
49029;SDS011;43337;52.070;4.508;2022-07-29T14:08:28;3.03;;;1.27;;
49029;SDS011;43337;52.070;4.508;2022-07-29T14:10:54;4.05;;;1.15;;
49029;SDS011;43337;52.070;4.508;2022-07-29T14:13:19;3.10;;;1.20;;
49029;SDS011;43337;52.070;4.508;2022-07-29T14:15:45;5.35;;;1.10;;
49029;SDS011;43337;52.070;4.508;2022-07-29T14:18:10;3.53;;;1.10;;
49029;SDS011;43337;52.070;4.508;2022-07-29T14:20:35;4.03;;;1.20;;
49029;SDS011;43337;52.070;4.508;2022-07-29T14:23:01;5.28;;;1.60;;
49029;SDS011;43337;52.070;4.508;2022-07-29T14:25:27;4.10;;;1.33;;
49029;SDS011;43337;52.070;4.508;2022-07-29T14:27:52;3.97;;;1.10;;
49029;SDS011;43337;52.070;4.508;2022-07-29T14:30:19;7.55;;;1.52;;
49029;SDS011;43337;52.070;4.508;2022-07-29T14:32:44;4.20;;;1.20;;
49029;SDS011;43337;52.070;4.508;2022-07-29T14:35:10;6.43;;;1.73;;
49029;SDS011;43337;52.070;4.508;2022-07-29T14:37:35;3.15;;;1.00;;
49029;SDS011;43337;52.070;4.508;2022-07-29T14:40:01;4.25;;;1.30;;
49029;SDS011;43337;52.070;4.508;2022-07-29T14:42:28;8.30;;;2.10;;
49029;SDS011;43337;52.070;4.508;2022-07-29T14:44:56;5.55;;;1.55;;
49029;SDS011;43337;52.070;4.508;2022-07-29T14:47:21;8.02;;;1.33;;
49029;SDS011;43337;52.070;4.508;2022-07-29T14:49:48;4.38;;;1.27;;
49029;SDS011;43337;52.070;4.508;2022-07-29T14:52:13;3.20;;;1.20;;
49029;SDS011;43337;52.070;4.508;2022-07-29T14:54:39;3.40;;;1.17;;
49029;SDS011;43337;52.070;4.508;2022-07-29T14:57:04;4.65;;;1.75;;
49029;SDS011;43337;52.070;4.508;2022-07-29T14:59:29;5.53;;;1.27;;
49029;SDS011;43337;52.070;4.508;2022-07-29T15:01:55;6.75;;;1.48;;
49029;SDS011;43337;52.070;4.508;2022-07-29T15:04:20;3.55;;;1.08;;
49029;SDS011;43337;52.070;4.508;2022-07-29T15:06:46;3.92;;;1.30;;
49029;SDS011;43337;52.070;4.508;2022-07-29T15:09:11;4.70;;;1.00;;
49029;SDS011;43337;52.070;4.508;2022-07-29T15:11:36;7.63;;;1.48;;
49029;SDS011;43337;52.070;4.508;2022-07-29T15:14:02;6.13;;;1.50;;
49029;SDS011;43337;52.070;4.508;2022-07-29T15:16:27;4.22;;;1.17;;
49029;SDS011;43337;52.070;4.508;2022-07-29T15:18:53;5.47;;;1.27;;
49029;SDS011;43337;52.070;4.508;2022-07-29T15:21:19;4.57;;;0.93;;
49029;SDS011;43337;52.070;4.508;2022-07-29T15:23:45;4.35;;;1.20;;
49029;SDS011;43337;52.070;4.508;2022-07-29T15:26:10;5.30;;;1.20;;
49029;SDS011;43337;52.070;4.508;2022-07-29T15:28:35;4.20;;;1.10;;
49029;SDS011;43337;52.070;4.508;2022-07-29T15:31:01;4.18;;;1.52;;
49029;SDS011;43337;52.070;4.508;2022-07-29T15:33:26;6.15;;;1.38;;
49029;SDS011;43337;52.070;4.508;2022-07-29T15:35:52;6.03;;;1.63;;
49029;SDS011;43337;52.070;4.508;2022-07-29T15:38:17;4.32;;;1.15;;
49029;SDS011;43337;52.070;4.508;2022-07-29T15:40:43;3.47;;;1.00;;
49029;SDS011;43337;52.070;4.508;2022-07-29T15:43:09;4.97;;;1.25;;
49029;SDS011;43337;52.070;4.508;2022-07-29T15:45:35;4.22;;;0.98;;
49029;SDS011;43337;52.070;4.508;2022-07-29T15:48:03;16.25;;;1.67;;
49029;SDS011;43337;52.070;4.508;2022-07-29T15:50:30;8.40;;;2.17;;
49029;SDS011;43337;52.070;4.508;2022-07-29T15:52:55;4.60;;;1.38;;
49029;SDS011;43337;52.070;4.508;2022-07-29T15:55:21;3.88;;;1.10;;
49029;SDS011;43337;52.070;4.508;2022-07-29T15:57:48;4.07;;;1.20;;
49029;SDS011;43337;52.070;4.508;2022-07-29T16:00:13;5.13;;;1.05;;
49029;SDS011;43337;52.070;4.508;2022-07-29T16:02:41;5.72;;;1.50;;